San Diego, California
Traffic Map
Current Weather Conditions
San Diego, California
Broken Clouds
Broken Clouds
19°
Feels Like: 19°
Wind Chill: 19° Ceiling: 22000
Heat Index: 19° Visibility: 10mi
Dew Point: Wind: 10mph
Humidity: 54% Direction: 250° (WSW)
Pressure: 30.02in Gusts: 0mph
Raw Report DataKSAN 261851Z 25009KT 10SM FEW033 BKN220 19/09 A3002 RMK AO2 SLP164 T01890094
Traffic Incident Summary
Active as of:
Severity:
Category:
InformationThere was an issue retrieving the traffic information for this location. Please try a different location or try again shortly.
Advertisements
Track Severe Weather on mobile